Time;durP1;ratioP1;P1;durP2;ratioP2;P2;SDS_P1;SDS_P2;PMS_P1;PMS_P2;Temp;Humidity;BMP_temperature;BMP_pressure;BME280_temperature;BME280_humidity;BME280_pressure;Samples;Min_cycle;Max_cycle;Signal;HPM_P1;HPM_P2
2022/02/16 00:02:12;;;;;;;3.10;2.23;;;2.90;94.70;;;;;;6163500;23;20242;-82
2022/02/16 00:04:39;;;;;;;3.63;2.40;;;3.00;94.80;;;;;;6165312;23;20176;-82
2022/02/16 00:07:06;;;;;;;2.73;2.27;;;2.90;94.60;;;;;;6164753;23;20206;-84
2022/02/16 00:09:34;;;;;;;3.33;2.37;;;3.00;94.70;;;;;;6165836;23;20239;-88
2022/02/16 00:12:03;;;;;;;2.87;2.47;;;2.90;94.60;;;;;;6165587;23;20206;-82
2022/02/16 00:14:30;;;;;;;3.20;2.57;;;2.80;94.90;;;;;;6165715;23;20205;-83
2022/02/16 00:16:58;;;;;;;3.87;2.70;;;2.80;95.10;;;;;;6163454;23;20285;-85
2022/02/16 00:19:25;;;;;;;2.90;2.40;;;2.80;95.10;;;;;;6166903;23;20181;-82
2022/02/16 00:21:52;;;;;;;2.50;2.23;;;2.80;94.60;;;;;;6139468;23;20583;-81
2022/02/16 00:24:19;;;;;;;3.00;2.30;;;2.80;94.60;;;;;;6166526;23;20258;-84
2022/02/16 00:26:58;;;;;;;2.63;2.17;;;2.80;94.60;;;;;;6165084;23;20203;-86
2022/02/16 00:29:26;;;;;;;2.20;1.90;;;2.70;94.60;;;;;;6166589;23;20211;-82
2022/02/16 00:31:53;;;;;;;2.73;2.00;;;2.60;94.60;;;;;;6165228;23;20281;-82
2022/02/16 00:34:20;;;;;;;2.40;2.13;;;2.60;95.00;;;;;;6166155;23;20195;-83
2022/02/16 00:36:47;;;;;;;3.17;1.80;;;2.60;94.60;;;;;;6165526;23;20217;-82
2022/02/16 00:39:14;;;;;;;3.47;1.90;;;2.70;94.60;;;;;;6166465;23;20710;-82
2022/02/16 00:41:41;;;;;;;2.97;1.97;;;2.70;94.60;;;;;;6166035;23;20207;-82
2022/02/16 00:44:08;;;;;;;2.77;1.90;;;2.70;94.60;;;;;;6166381;23;20626;-81
2022/02/16 00:46:36;;;;;;;2.23;1.80;;;2.70;94.60;;;;;;6166922;23;20267;-83
2022/02/16 00:49:03;;;;;;;3.20;1.90;;;2.70;94.60;;;;;;6167942;23;20252;-83
2022/02/16 00:51:30;;;;;;;2.43;1.80;;;2.70;94.60;;;;;;6167111;23;20210;-83
2022/02/16 00:53:57;;;;;;;2.10;1.87;;;2.70;94.60;;;;;;6166744;23;20185;-83
2022/02/16 00:56:23;;;;;;;2.70;2.03;;;2.60;94.60;;;;;;6167059;23;20282;-83
2022/02/16 00:58:51;;;;;;;3.93;1.70;;;2.60;94.40;;;;;;6168811;23;20235;-82
2022/02/16 01:01:20;;;;;;;2.77;1.70;;;2.60;94.10;;;;;;6168035;23;20271;-85
2022/02/16 01:03:49;;;;;;;3.07;1.90;;;2.60;94.00;;;;;;6167308;23;20175;-84
2022/02/16 01:06:16;;;;;;;2.67;1.60;;;2.50;94.20;;;;;;6167508;23;20255;-86
2022/02/16 01:08:43;;;;;;;2.37;1.50;;;2.50;94.00;;;;;;6168760;23;20178;-85
2022/02/16 01:11:10;;;;;;;1.70;1.60;;;2.40;94.00;;;;;;6166982;23;20235;-85
2022/02/16 01:13:36;;;;;;;2.13;1.57;;;2.50;94.00;;;;;;6169067;23;20179;-82
2022/02/16 01:16:04;;;;;;;2.20;1.73;;;2.40;93.90;;;;;;6167307;23;20254;-82
2022/02/16 01:18:31;;;;;;;1.80;1.60;;;2.40;94.10;;;;;;6168677;23;20175;-82
2022/02/16 01:20:59;;;;;;;1.60;1.40;;;2.40;94.00;;;;;;6166419;23;20203;-83
2022/02/16 01:23:26;;;;;;;3.00;1.40;;;2.40;93.40;;;;;;6169247;23;20182;-82
2022/02/16 01:25:53;;;;;;;1.70;1.40;;;2.50;93.50;;;;;;6168509;23;20210;-82
2022/02/16 01:28:21;;;;;;;2.70;1.80;;;2.40;93.40;;;;;;6168754;23;20738;-85
2022/02/16 01:30:48;;;;;;;1.60;1.50;;;2.40;93.30;;;;;;6168366;23;20218;-82
2022/02/16 01:33:15;;;;;;;1.37;1.27;;;2.40;93.40;;;;;;6169681;23;20255;-81
2022/02/16 01:35:42;;;;;;;1.60;1.50;;;2.30;93.40;;;;;;6164961;23;20251;-82
2022/02/16 01:38:11;;;;;;;1.43;1.30;;;2.30;93.60;;;;;;6166091;23;20175;-82
2022/02/16 01:40:38;;;;;;;1.57;1.37;;;2.40;93.60;;;;;;6168474;23;20226;-83
2022/02/16 01:43:05;;;;;;;12.07;4.93;;;2.40;93.30;;;;;;6168024;23;20233;-83
2022/02/16 01:45:34;;;;;;;3.10;1.60;;;2.40;93.20;;;;;;6168394;23;20207;-83
2022/02/16 01:48:01;;;;;;;1.77;1.57;;;2.40;92.80;;;;;;6169175;23;20179;-83
2022/02/16 01:50:33;;;;;;;1.40;1.30;;;2.40;92.80;;;;;;6168209;23;20222;-82
2022/02/16 01:53:00;;;;;;;2.33;1.10;;;2.40;92.70;;;;;;6169095;23;20223;-82
2022/02/16 01:55:28;;;;;;;1.27;1.17;;;2.40;92.70;;;;;;6167918;23;20247;-81
2022/02/16 01:57:55;;;;;;;1.50;1.30;;;2.40;92.50;;;;;;6169629;23;20174;-85
2022/02/16 02:00:22;;;;;;;1.30;1.20;;;2.30;92.30;;;;;;6167682;23;20203;-82
2022/02/16 02:02:49;;;;;;;1.80;1.47;;;2.20;92.20;;;;;;6168729;23;20282;-81
2022/02/16 02:05:16;;;;;;;1.80;1.70;;;2.10;92.70;;;;;;6167842;23;20175;-81
2022/02/16 02:07:43;;;;;;;2.90;1.80;;;1.90;93.00;;;;;;6169734;23;20205;-83
2022/02/16 02:10:11;;;;;;;2.93;1.80;;;1.80;93.70;;;;;;6168487;23;20235;-81
2022/02/16 02:12:48;;;;;;;1.83;1.70;;;1.80;94.10;;;;;;6168791;23;20258;-86
2022/02/16 02:15:16;;;;;;;2.33;1.93;;;1.90;94.30;;;;;;6167624;23;20171;-81
2022/02/16 02:17:43;;;;;;;2.27;1.97;;;1.80;94.40;;;;;;6169205;23;20202;-81
2022/02/16 02:20:21;;;;;;;3.73;2.20;;;1.80;94.40;;;;;;6167588;23;20230;-85
2022/02/16 02:22:48;;;;;;;2.20;1.80;;;1.80;94.40;;;;;;6168694;23;20247;-84
2022/02/16 02:25:15;;;;;;;2.47;2.27;;;1.80;94.40;;;;;;6168014;23;20183;-81
2022/02/16 02:27:42;;;;;;;2.37;2.00;;;1.90;94.40;;;;;;6167828;23;20175;-81
2022/02/16 02:30:10;;;;;;;2.80;1.93;;;1.70;94.40;;;;;;6167058;23;20179;-82
2022/02/16 02:32:39;;;;;;;2.20;2.00;;;1.60;94.40;;;;;;6143208;23;20199;-83
2022/02/16 02:35:07;;;;;;;2.27;1.90;;;1.60;94.60;;;;;;6167800;23;20175;-81
2022/02/16 02:37:37;;;;;;;2.27;2.00;;;1.50;94.80;;;;;;6168679;23;20183;-83
2022/02/16 02:40:05;;;;;;;2.17;1.87;;;1.60;95.10;;;;;;6167561;23;20230;-81
2022/02/16 02:42:32;;;;;;;3.80;1.80;;;1.60;94.90;;;;;;6168989;23;20203;-84
2022/02/16 02:45:02;;;;;;;2.03;1.90;;;1.60;95.00;;;;;;6168529;23;20175;-82
2022/02/16 02:47:29;;;;;;;2.13;1.80;;;1.60;94.90;;;;;;6165966;23;20191;-81
2022/02/16 02:49:57;;;;;;;4.07;1.90;;;1.50;95.30;;;;;;6169252;23;20198;-83
2022/02/16 02:52:24;;;;;;;1.60;1.50;;;1.50;95.10;;;;;;6167772;23;20207;-83
2022/02/16 02:54:52;;;;;;;1.93;1.57;;;1.50;95.20;;;;;;6167342;23;20195;-82
2022/02/16 02:57:19;;;;;;;1.70;1.30;;;1.60;94.80;;;;;;6168563;23;20669;-81
2022/02/16 02:59:46;;;;;;;1.93;1.53;;;1.50;94.60;;;;;;6169249;23;20262;-85
2022/02/16 03:02:13;;;;;;;1.60;1.50;;;1.50;95.00;;;;;;6169100;23;20228;-82
2022/02/16 03:04:40;;;;;;;1.60;1.50;;;1.60;94.60;;;;;;6168941;23;20239;-81
2022/02/16 03:07:07;;;;;;;2.07;1.67;;;1.70;94.40;;;;;;6168446;23;20214;-81
2022/02/16 03:09:34;;;;;;;2.43;1.40;;;1.80;94.50;;;;;;6170391;23;20234;-81
2022/02/16 03:12:02;;;;;;;1.60;1.50;;;1.70;94.40;;;;;;6169501;23;20233;-83
2022/02/16 03:14:29;;;;;;;1.70;1.50;;;1.70;94.40;;;;;;6168949;23;20565;-81
2022/02/16 03:16:56;;;;;;;2.90;1.70;;;1.60;94.40;;;;;;6169470;23;20241;-83
2022/02/16 03:19:23;;;;;;;1.70;1.60;;;1.70;94.40;;;;;;6171598;23;20178;-83
2022/02/16 03:21:50;;;;;;;1.60;1.47;;;1.70;94.40;;;;;;6169021;23;20239;-84
2022/02/16 03:24:17;;;;;;;1.70;1.50;;;1.80;94.40;;;;;;6170366;23;20180;-83
2022/02/16 03:26:44;;;;;;;1.77;1.60;;;1.80;94.40;;;;;;6169533;23;20200;-81
2022/02/16 03:29:12;;;;;;;1.60;1.50;;;1.80;94.40;;;;;;6170215;23;20202;-82
2022/02/16 03:31:39;;;;;;;2.63;1.60;;;1.70;94.40;;;;;;6169392;23;20199;-81
2022/02/16 03:34:06;;;;;;;2.40;1.80;;;1.60;94.40;;;;;;6170351;23;20183;-82
2022/02/16 03:36:44;;;;;;;3.53;1.73;;;1.70;94.90;;;;;;6169589;23;20286;-81
2022/02/16 03:39:11;;;;;;;2.57;1.57;;;1.70;95.00;;;;;;6171286;23;20198;-82
2022/02/16 03:41:38;;;;;;;1.87;1.67;;;1.70;95.00;;;;;;6169255;23;20519;-85
2022/02/16 03:44:06;;;;;;;1.83;1.50;;;1.80;94.50;;;;;;6171175;23;20179;-81
2022/02/16 03:46:34;;;;;;;1.70;1.60;;;1.90;94.40;;;;;;6170119;23;20231;-82
2022/02/16 03:49:01;;;;;;;1.57;1.47;;;1.90;94.40;;;;;;6170599;23;20250;-82
2022/02/16 03:51:28;;;;;;;1.50;1.40;;;1.90;94.40;;;;;;6171046;23;20245;-81
2022/02/16 03:53:55;;;;;;;1.80;1.70;;;1.90;94.40;;;;;;6171723;23;20258;-83
2022/02/16 03:56:22;;;;;;;1.77;1.67;;;1.80;94.40;;;;;;6170907;23;20227;-82
2022/02/16 03:58:48;;;;;;;1.50;1.40;;;1.80;94.90;;;;;;6169623;23;20261;-81
2022/02/16 04:01:16;;;;;;;1.77;1.63;;;1.70;95.00;;;;;;6168282;23;20238;-84
2022/02/16 04:03:44;;;;;;;3.23;1.80;;;1.70;95.10;;;;;;6171078;23;20251;-86
2022/02/16 04:06:11;;;;;;;1.50;1.40;;;1.60;95.40;;;;;;6168955;23;20562;-81
2022/02/16 04:08:38;;;;;;;1.67;1.57;;;1.70;95.60;;;;;;6171667;23;20186;-82
2022/02/16 04:11:05;;;;;;;3.33;1.77;;;1.70;95.40;;;;;;6169682;23;20223;-82
2022/02/16 04:13:36;;;;;;;1.87;1.70;;;1.80;95.00;;;;;;6144447;23;20198;-83
2022/02/16 04:16:03;;;;;;;2.67;2.13;;;1.80;94.80;;;;;;6169041;23;20650;-81
2022/02/16 04:18:31;;;;;;;6.73;2.73;;;1.80;95.10;;;;;;6170028;23;20231;-82
2022/02/16 04:21:00;;;;;;;6.03;3.80;;;1.90;95.20;;;;;;6169464;23;20231;-82
2022/02/16 04:23:27;;;;;;;4.30;3.23;;;2.00;95.00;;;;;;6169566;23;20191;-81
2022/02/16 04:25:54;;;;;;;3.30;2.20;;;2.10;94.50;;;;;;6169291;23;20218;-84
2022/02/16 04:28:21;;;;;;;2.30;1.63;;;2.30;94.50;;;;;;6169621;23;20198;-82
2022/02/16 04:30:54;;;;;;;3.37;1.90;;;2.30;94.10;;;;;;6170131;23;20663;-82
2022/02/16 04:33:21;;;;;;;2.57;2.00;;;2.10;94.50;;;;;;6169940;23;20538;-85
2022/02/16 04:35:48;;;;;;;3.63;1.87;;;2.00;94.40;;;;;;6168524;23;20259;-84
2022/02/16 04:38:17;;;;;;;2.33;1.37;;;1.90;94.70;;;;;;6169784;23;20175;-86
2022/02/16 04:40:44;;;;;;;1.93;1.67;;;1.90;94.90;;;;;;6169046;23;20758;-81
2022/02/16 04:43:11;;;;;;;1.40;1.30;;;1.90;95.10;;;;;;6167282;23;20522;-82
2022/02/16 04:45:40;;;;;;;2.23;1.40;;;1.90;95.10;;;;;;6167486;23;20258;-81
2022/02/16 04:48:08;;;;;;;1.57;1.47;;;2.00;94.60;;;;;;6169966;23;20226;-82
2022/02/16 04:50:35;;;;;;;1.40;1.30;;;1.90;94.50;;;;;;6168185;23;20270;-84
2022/02/16 04:53:01;;;;;;;1.83;1.30;;;2.00;94.70;;;;;;6168931;23;20176;-81
2022/02/16 04:55:30;;;;;;;1.43;1.27;;;2.00;94.70;;;;;;6168216;23;20606;-81
2022/02/16 04:57:56;;;;;;;1.43;1.30;;;2.00;94.70;;;;;;6169488;23;20523;-83
2022/02/16 05:00:25;;;;;;;2.30;1.33;;;2.00;94.70;;;;;;6168433;23;20213;-81
2022/02/16 05:02:52;;;;;;;1.40;1.30;;;2.10;94.50;;;;;;6168394;23;20199;-82
2022/02/16 05:05:19;;;;;;;1.30;1.20;;;2.20;94.60;;;;;;6166875;23;20179;-82
2022/02/16 05:07:46;;;;;;;2.23;1.40;;;2.20;94.70;;;;;;6168097;23;20262;-83
2022/02/16 05:10:13;;;;;;;1.57;1.47;;;2.20;94.50;;;;;;6167737;23;20207;-81
2022/02/16 05:12:41;;;;;;;1.30;1.20;;;2.20;94.50;;;;;;6167483;23;20286;-81
2022/02/16 05:15:09;;;;;;;1.60;1.50;;;2.10;94.50;;;;;;6166091;23;20175;-82
2022/02/16 05:17:36;;;;;;;1.47;1.37;;;2.20;94.50;;;;;;6167462;23;20253;-81
2022/02/16 05:20:03;;;;;;;1.40;1.23;;;2.20;94.50;;;;;;6167868;23;20497;-82
2022/02/16 05:22:30;;;;;;;1.50;1.17;;;2.20;94.50;;;;;;6167047;23;20250;-81
2022/02/16 05:24:59;;;;;;;1.40;1.30;;;2.30;94.80;;;;;;6168501;23;20176;-82
2022/02/16 05:27:31;;;;;;;2.13;1.30;;;2.30;94.20;;;;;;6166840;23;20215;-81
2022/02/16 05:29:59;;;;;;;1.30;1.20;;;2.30;94.20;;;;;;6168038;23;20196;-82
2022/02/16 05:32:26;;;;;;;1.20;1.10;;;2.20;94.50;;;;;;6168106;23;20282;-84
2022/02/16 05:35:00;;;;;;;1.40;1.30;;;2.30;94.30;;;;;;6168193;23;20254;-82
2022/02/16 05:37:28;;;;;;;1.33;1.23;;;2.50;93.80;;;;;;6143138;23;20207;-82
2022/02/16 05:39:55;;;;;;;1.33;1.23;;;2.50;93.40;;;;;;6168697;23;20730;-81
2022/02/16 05:42:22;;;;;;;1.20;1.10;;;2.50;93.20;;;;;;6169533;23;20363;-82
2022/02/16 05:44:49;;;;;;;1.33;1.23;;;2.50;93.40;;;;;;6169969;23;20219;-85
2022/02/16 05:47:19;;;;;;;1.60;1.50;;;2.50;93.60;;;;;;6165828;23;20207;-83
2022/02/16 05:49:45;;;;;;;1.67;1.27;;;2.40;93.70;;;;;;6168553;23;20202;-82
2022/02/16 05:52:14;;;;;;;2.50;1.40;;;2.40;93.70;;;;;;6166304;23;20592;-82
2022/02/16 05:54:41;;;;;;;1.23;1.13;;;2.40;93.60;;;;;;6169261;23;20591;-83
2022/02/16 05:57:07;;;;;;;2.30;1.90;;;2.30;93.80;;;;;;6166266;23;20199;-85
2022/02/16 05:59:39;;;;;;;2.10;1.40;;;2.30;93.80;;;;;;6167913;23;20235;-86
2022/02/16 06:02:06;;;;;;;2.37;1.60;;;2.30;93.40;;;;;;6164778;23;20218;-85
2022/02/16 06:04:35;;;;;;;1.70;1.30;;;2.30;93.20;;;;;;6166485;23;20202;-82
2022/02/16 06:07:03;;;;;;;1.00;1.00;;;2.40;93.20;;;;;;6167624;23;20222;-84
2022/02/16 06:09:29;;;;;;;1.43;1.23;;;2.50;92.80;;;;;;6167378;23;20179;-82
2022/02/16 06:11:56;;;;;;;1.30;1.20;;;2.50;92.50;;;;;;6165301;23;20230;-82
2022/02/16 06:14:23;;;;;;;1.17;1.07;;;2.60;92.40;;;;;;6166205;23;20222;-83
2022/02/16 06:16:51;;;;;;;1.00;1.00;;;2.60;92.10;;;;;;6165010;23;20258;-86
2022/02/16 06:19:18;;;;;;;0.90;0.90;;;2.70;91.90;;;;;;6165036;23;20167;-88
2022/02/16 06:21:49;;;;;;;2.30;1.00;;;2.60;92.00;;;;;;6164318;23;20255;-81
2022/02/16 06:24:16;;;;;;;1.30;1.20;;;2.80;91.90;;;;;;6176117;23;20259;-84
2022/02/16 06:26:43;;;;;;;1.27;1.17;;;2.70;91.30;;;;;;6176456;23;20203;-82
2022/02/16 06:29:10;;;;;;;1.10;1.10;;;2.70;91.10;;;;;;6166486;23;20179;-83
2022/02/16 06:31:37;;;;;;;1.50;1.13;;;2.70;91.40;;;;;;6163230;23;20211;-90
2022/02/16 06:34:04;;;;;;;1.50;1.40;;;2.70;91.60;;;;;;6167435;23;20257;-82
2022/02/16 06:36:35;;;;;;;1.47;1.37;;;2.80;91.60;;;;;;6167674;23;20333;-84
2022/02/16 06:39:04;;;;;;;1.33;1.23;;;2.70;91.20;;;;;;6167101;23;20163;-83
2022/02/16 06:41:31;;;;;;;1.47;1.30;;;2.80;91.30;;;;;;6167694;23;20270;-83
2022/02/16 06:43:58;;;;;;;1.47;1.37;;;2.90;91.30;;;;;;6169114;23;20282;-84
2022/02/16 06:46:25;;;;;;;1.30;1.20;;;2.90;91.00;;;;;;6143177;23;20213;-84
2022/02/16 06:48:52;;;;;;;1.77;1.50;;;3.10;90.70;;;;;;6169162;23;20195;-85
2022/02/16 06:51:19;;;;;;;1.40;1.30;;;3.20;90.40;;;;;;6167203;23;20238;-83
2022/02/16 06:53:56;;;;;;;1.40;1.30;;;3.10;89.80;;;;;;6169380;23;20206;-84
2022/02/16 06:56:28;;;;;;;1.20;1.10;;;3.10;90.10;;;;;;6171203;23;20202;-80
2022/02/16 06:58:55;;;;;;;1.70;1.27;;;3.10;90.30;;;;;;6168332;23;20167;-83
2022/02/16 07:01:22;;;;;;;1.57;1.40;;;3.20;90.30;;;;;;6165901;23;20255;-81
2022/02/16 07:03:48;;;;;;;1.00;1.00;;;3.20;90.00;;;;;;6165709;23;20237;-82
2022/02/16 07:06:15;;;;;;;1.60;1.30;;;3.30;90.10;;;;;;6166160;23;20199;-81
2022/02/16 07:08:42;;;;;;;3.00;1.30;;;3.30;90.10;;;;;;6165472;23;20641;-80
2022/02/16 07:11:10;;;;;;;1.97;1.57;;;3.50;90.00;;;;;;6165755;23;20267;-82
2022/02/16 07:13:38;;;;;;;1.80;1.20;;;3.40;89.50;;;;;;6167029;23;20242;-82
2022/02/16 07:16:05;;;;;;;2.13;1.40;;;3.40;90.30;;;;;;6166532;23;20206;-85
2022/02/16 07:18:35;;;;;;;1.73;1.53;;;3.60;90.40;;;;;;6174972;23;20199;-84
2022/02/16 07:21:02;;;;;;;3.83;1.80;;;3.80;89.30;;;;;;6174709;23;20210;-81
2022/02/16 07:23:29;;;;;;;3.33;2.20;;;4.00;88.30;;;;;;6167329;23;20210;-81
2022/02/16 07:25:55;;;;;;;2.27;1.80;;;4.10;84.30;;;;;;6162062;23;20230;-86
2022/02/16 07:28:22;;;;;;;4.47;1.90;;;4.30;83.90;;;;;;6166229;23;20175;-83
2022/02/16 07:30:50;;;;;;;3.07;1.70;;;4.50;83.60;;;;;;6164710;23;20278;-84
2022/02/16 07:33:17;;;;;;;2.23;1.80;;;4.50;82.20;;;;;;6165766;23;20185;-81
2022/02/16 07:35:46;;;;;;;2.97;1.47;;;4.50;81.40;;;;;;6164677;23;20210;-83
2022/02/16 07:38:13;;;;;;;2.67;1.83;;;4.50;81.70;;;;;;6166237;23;20223;-81
2022/02/16 07:40:40;;;;;;;1.60;1.50;;;4.50;80.60;;;;;;6164063;23;20222;-83
2022/02/16 07:43:07;;;;;;;3.90;1.80;;;4.40;81.00;;;;;;6164887;23;20278;-82
2022/02/16 07:45:33;;;;;;;2.50;1.77;;;4.50;82.10;;;;;;6162809;23;20587;-83
2022/02/16 07:48:02;;;;;;;3.87;1.90;;;4.60;82.20;;;;;;6163056;23;20182;-86
2022/02/16 07:50:29;;;;;;;2.50;1.60;;;4.80;80.20;;;;;;6162975;23;20504;-83
2022/02/16 07:52:58;;;;;;;2.93;1.60;;;4.90;79.40;;;;;;6163131;23;20176;-84
2022/02/16 07:55:26;;;;;;;2.13;1.60;;;5.00;78.10;;;;;;6162283;23;20209;-84
2022/02/16 07:57:53;;;;;;;2.27;1.80;;;5.10;75.80;;;;;;6163541;23;20164;-83
2022/02/16 08:00:20;;;;;;;1.90;1.70;;;5.10;77.00;;;;;;6162327;23;20236;-83
2022/02/16 08:02:47;;;;;;;2.10;1.57;;;5.30;77.20;;;;;;6164203;23;20203;-84
2022/02/16 08:05:15;;;;;;;2.10;1.90;;;5.30;78.00;;;;;;6164034;23;20182;-83
2022/02/16 08:07:42;;;;;;;1.97;1.60;;;5.30;76.60;;;;;;6163981;23;20178;-83
2022/02/16 08:10:09;;;;;;;3.33;1.70;;;5.60;74.30;;;;;;6164052;23;20179;-85
2022/02/16 08:12:44;;;;;;;1.97;1.50;;;5.70;74.60;;;;;;6164633;23;20201;-86
2022/02/16 08:15:11;;;;;;;1.73;1.50;;;5.90;73.90;;;;;;6163992;23;20524;-83
2022/02/16 08:17:39;;;;;;;1.93;1.40;;;6.20;71.00;;;;;;6163615;23;20178;-84
2022/02/16 08:20:07;;;;;;;2.07;1.40;;;6.40;71.00;;;;;;6136789;23;20187;-83
2022/02/16 08:22:36;;;;;;;2.37;1.40;;;6.50;62.90;;;;;;6163568;23;20262;-84
2022/02/16 08:25:02;;;;;;;1.73;1.40;;;6.70;61.80;;;;;;6162990;23;20201;-83
2022/02/16 08:27:29;;;;;;;1.27;0.97;;;6.90;59.80;;;;;;6163507;23;20269;-83
2022/02/16 08:29:56;;;;;;;1.67;1.20;;;7.00;55.30;;;;;;6163888;23;20171;-84
2022/02/16 08:32:23;;;;;;;1.55;1.10;;;7.10;53.90;;;;;;6163636;23;20203;-84
2022/02/16 08:34:50;;;;;;;1.30;1.08;;;7.40;53.20;;;;;;6165063;23;20286;-83
2022/02/16 08:37:27;;;;;;;1.13;0.98;;;7.70;50.50;;;;;;6164480;23;20275;-83
2022/02/16 08:39:55;;;;;;;0.90;0.90;;;8.00;46.70;;;;;;6165214;23;20538;-84
2022/02/16 08:42:22;;;;;;;1.50;1.23;;;8.20;45.30;;;;;;6164432;23;20294;-84
2022/02/16 08:44:49;;;;;;;1.20;1.10;;;8.10;46.80;;;;;;6164435;23;20639;-84
2022/02/16 08:47:16;;;;;;;1.13;0.82;;;8.20;45.30;;;;;;6163560;23;20207;-83
2022/02/16 08:49:44;;;;;;;1.20;1.00;;;8.10;42.40;;;;;;6165271;23;20196;-84
2022/02/16 08:52:11;;;;;;;0.80;0.80;;;8.00;43.70;;;;;;6164823;23;20215;-84
2022/02/16 08:54:38;;;;;;;0.80;0.80;;;7.80;43.70;;;;;;6164990;23;20703;-83
2022/02/16 08:57:07;;;;;;;2.67;1.00;;;7.80;46.50;;;;;;6164075;23;20230;-83
2022/02/16 08:59:34;;;;;;;1.10;0.90;;;8.10;44.80;;;;;;6164762;23;20185;-84
2022/02/16 09:02:01;;;;;;;2.83;1.15;;;8.20;42.90;;;;;;6163182;23;20239;-84
2022/02/16 09:04:29;;;;;;;2.78;0.90;;;8.60;43.00;;;;;;6165183;23;20647;-83
2022/02/16 09:09:43;;;;;;;2.50;1.10;;;9.00;39.70;;;;;;6168708;23;20207;-84
2022/02/16 09:12:11;;;;;;;1.10;0.82;;;9.30;40.90;;;;;;6167491;23;20482;-85
2022/02/16 09:14:39;;;;;;;2.50;0.80;;;9.40;37.60;;;;;;6168967;23;20227;-83
2022/02/16 09:17:05;;;;;;;2.65;1.00;;;9.30;36.00;;;;;;6166496;23;20719;-84
2022/02/16 09:19:33;;;;;;;0.85;0.85;;;9.20;36.40;;;;;;6167128;23;20225;-84
2022/02/16 09:22:00;;;;;;;0.90;0.90;;;9.10;36.90;;;;;;6164393;23;20207;-83
2022/02/16 09:24:27;;;;;;;1.10;0.85;;;8.80;37.30;;;;;;6165153;23;20258;-83
2022/02/16 09:26:54;;;;;;;0.82;0.82;;;8.70;38.40;;;;;;6163891;23;20290;-83
2022/02/16 09:29:23;;;;;;;0.95;0.93;;;8.50;37.80;;;;;;6163589;23;20254;-84
2022/02/16 09:31:51;;;;;;;1.20;1.10;;;8.50;40.30;;;;;;6163666;23;20688;-85
2022/02/16 09:34:18;;;;;;;0.90;0.90;;;8.60;42.00;;;;;;6165259;23;20235;-84
2022/02/16 09:36:45;;;;;;;0.80;0.80;;;8.50;40.00;;;;;;6164451;23;20289;-87
2022/02/16 09:39:12;;;;;;;1.10;1.10;;;8.40;40.30;;;;;;6163545;23;20645;-84
2022/02/16 09:41:43;;;;;;;0.95;0.85;;;8.40;41.70;;;;;;6163489;23;20203;-83
2022/02/16 09:44:13;;;;;;;1.20;1.10;;;8.50;43.50;;;;;;6163944;23;20190;-84
2022/02/16 09:46:41;;;;;;;0.80;0.80;;;8.50;44.20;;;;;;6162531;23;20501;-83
2022/02/16 09:49:11;;;;;;;2.13;0.90;;;8.50;41.30;;;;;;6164344;23;20561;-84
2022/02/16 09:51:38;;;;;;;2.35;1.23;;;8.50;43.10;;;;;;6163245;23;20670;-83
2022/02/16 09:54:05;;;;;;;3.10;1.27;;;8.60;42.10;;;;;;6163540;23;20294;-83
2022/02/16 09:56:32;;;;;;;1.05;1.00;;;8.70;43.20;;;;;;6163232;23;20511;-84
2022/02/16 09:59:00;;;;;;;0.82;0.80;;;8.70;39.20;;;;;;6138226;23;20199;-84
2022/02/16 10:01:27;;;;;;;1.10;1.00;;;8.70;40.20;;;;;;6162694;23;20726;-83
2022/02/16 10:04:03;;;;;;;2.97;1.10;;;8.90;39.90;;;;;;6163578;23;20221;-84
2022/02/16 10:06:39;;;;;;;1.00;0.90;;;8.90;39.30;;;;;;6163355;23;20203;-83
2022/02/16 10:09:06;;;;;;;3.25;0.88;;;9.00;39.00;;;;;;6164431;23;20523;-83
2022/02/16 10:11:35;;;;;;;2.47;1.00;;;8.90;40.30;;;;;;6163675;23;20206;-83
2022/02/16 10:17:25;;;;;;;1.95;1.10;;;8.80;40.50;;;;;;6163876;23;20205;-83
2022/02/16 10:20:05;;;;;;;2.40;1.02;;;9.10;42.30;;;;;;6166578;23;20226;-84
2022/02/16 10:22:41;;;;;;;2.40;1.10;;;9.20;41.70;;;;;;6165872;23;20201;-84
2022/02/16 10:25:14;;;;;;;0.90;0.90;;;9.50;39.30;;;;;;6163112;23;20243;-83
2022/02/16 10:28:08;;;;;;;1.25;1.15;;;9.30;38.50;;;;;;6163532;23;20645;-84
2022/02/16 10:30:38;;;;;;;3.58;1.20;;;9.00;38.70;;;;;;6163126;23;20207;-83
2022/02/16 10:33:21;;;;;;;1.33;1.23;;;9.10;40.50;;;;;;6137806;23;20175;-84
2022/02/16 10:35:57;;;;;;;1.20;1.10;;;9.00;41.60;;;;;;6163246;23;20265;-84
2022/02/16 10:38:24;;;;;;;2.35;1.30;;;9.20;45.90;;;;;;6163392;23;20159;-83
2022/02/16 10:41:04;;;;;;;2.63;1.10;;;9.50;41.20;;;;;;6164651;23;20222;-84
2022/02/16 10:43:36;;;;;;;1.70;1.10;;;9.90;39.90;;;;;;6167795;23;20193;-83
2022/02/16 10:46:16;;;;;;;2.60;1.20;;;10.30;35.70;;;;;;6167383;23;20263;-83
2022/02/16 10:48:43;;;;;;;0.93;0.88;;;10.30;34.80;;;;;;6166523;23;20203;-84
2022/02/16 10:51:19;;;;;;;0.90;0.90;;;10.20;36.30;;;;;;6167028;23;20207;-83
2022/02/16 10:53:47;;;;;;;1.65;0.95;;;10.10;35.60;;;;;;6165142;23;20167;-84
2022/02/16 10:56:14;;;;;;;1.25;1.10;;;9.90;37.60;;;;;;6137928;23;20199;-83
2022/02/16 10:58:41;;;;;;;1.95;1.52;;;9.70;39.00;;;;;;6162896;23;20578;-83
2022/02/16 11:01:10;;;;;;;1.75;1.17;;;9.50;41.20;;;;;;6162565;23;20290;-83
2022/02/16 11:03:41;;;;;;;1.40;1.30;;;9.30;44.70;;;;;;6164180;23;20262;-83
2022/02/16 11:06:11;;;;;;;3.50;1.10;;;9.00;47.50;;;;;;6162546;23;20234;-85
2022/02/16 11:08:40;;;;;;;1.20;1.10;;;9.10;55.70;;;;;;6163633;23;20172;-84
2022/02/16 11:11:08;;;;;;;1.30;1.20;;;9.00;56.90;;;;;;6163137;23;20229;-83
2022/02/16 11:13:37;;;;;;;1.80;1.08;;;9.10;55.30;;;;;;6163366;23;20178;-83
2022/02/16 11:16:05;;;;;;;1.77;1.05;;;9.10;54.70;;;;;;6163054;23;20206;-84
2022/02/16 11:18:46;;;;;;;2.35;1.00;;;9.20;54.80;;;;;;6164920;23;20172;-83
2022/02/16 11:21:14;;;;;;;2.00;1.05;;;9.30;54.50;;;;;;6163258;23;20211;-83
2022/02/16 11:23:44;;;;;;;1.08;0.98;;;9.60;55.30;;;;;;6165857;23;20178;-85
2022/02/16 11:26:36;;;;;;;0.90;0.90;;;9.70;56.90;;;;;;6165049;23;20211;-83
2022/02/16 11:29:08;;;;;;;2.35;1.10;;;9.70;53.30;;;;;;6166194;23;20167;-83
2022/02/16 11:31:37;;;;;;;1.50;0.93;;;9.70;53.30;;;;;;6165579;23;20217;-83
2022/02/16 11:34:21;;;;;;;1.20;1.00;;;9.70;53.80;;;;;;6167126;23;20160;-83
2022/02/16 11:36:52;;;;;;;4.03;1.10;;;9.70;54.00;;;;;;6165311;23;20286;-85
2022/02/16 11:39:43;;;;;;;1.80;1.15;;;9.80;55.10;;;;;;6166545;23;20182;-83
2022/02/16 11:42:12;;;;;;;1.17;1.08;;;10.00;55.60;;;;;;6164634;23;20710;-83
2022/02/16 11:45:02;;;;;;;1.20;0.98;;;9.80;57.40;;;;;;6165896;23;20270;-83
2022/02/16 11:47:52;;;;;;;2.05;1.10;;;9.80;57.00;;;;;;6163796;23;20242;-84
2022/02/16 11:50:42;;;;;;;1.42;1.27;;;9.70;59.20;;;;;;6164344;23;20214;-84
2022/02/16 11:53:14;;;;;;;0.95;0.95;;;9.60;61.80;;;;;;6166177;23;20175;-83
2022/02/16 11:55:47;;;;;;;1.67;1.00;;;9.50;63.40;;;;;;6164377;23;20238;-85
2022/02/16 11:58:16;;;;;;;1.95;1.00;;;9.40;70.20;;;;;;6165153;23;20187;-84
2022/02/16 12:00:45;;;;;;;1.15;1.05;;;9.30;74.20;;;;;;6153633;23;20217;-84
2022/02/16 12:03:18;;;;;;;1.20;1.10;;;9.30;74.20;;;;;;6164698;23;20179;-83
2022/02/16 12:05:49;;;;;;;0.90;0.90;;;9.30;75.70;;;;;;6153490;23;20207;-84
2022/02/16 12:08:19;;;;;;;0.80;0.80;;;9.20;76.70;;;;;;6164584;23;20246;-84
2022/02/16 12:10:49;;;;;;;1.13;0.90;;;9.20;78.10;;;;;;6163699;23;20205;-85
2022/02/16 12:13:24;;;;;;;1.00;0.90;;;9.10;79.30;;;;;;6164217;23;20254;-83
2022/02/16 12:15:56;;;;;;;2.22;1.45;;;9.10;83.40;;;;;;6164302;23;20282;-85
2022/02/16 12:18:25;;;;;;;1.15;1.02;;;9.00;83.10;;;;;;6163785;23;20250;-86
2022/02/16 12:20:52;;;;;;;1.50;1.10;;;9.20;84.80;;;;;;6163900;23;20211;-83
2022/02/16 12:23:21;;;;;;;1.63;1.20;;;9.40;84.50;;;;;;6164602;23;20230;-84
2022/02/16 12:26:04;;;;;;;1.17;1.08;;;9.40;84.20;;;;;;6163175;23;20213;-84
2022/02/16 12:28:31;;;;;;;1.50;1.02;;;9.70;82.90;;;;;;6163822;23;20592;-83
2022/02/16 12:30:58;;;;;;;1.50;1.00;;;9.80;83.50;;;;;;6164290;23;20731;-84
2022/02/16 12:33:26;;;;;;;1.20;1.10;;;9.80;81.90;;;;;;6164435;23;20210;-84
2022/02/16 12:35:54;;;;;;;1.20;1.10;;;9.80;83.00;;;;;;6163642;23;20738;-84
2022/02/16 12:38:26;;;;;;;0.98;0.82;;;9.80;83.10;;;;;;6164699;23;20207;-84
2022/02/16 12:40:54;;;;;;;2.40;1.08;;;9.90;83.60;;;;;;6165339;23;20254;-83
2022/02/16 12:43:22;;;;;;;0.82;0.82;;;9.90;83.60;;;;;;6165500;23;20175;-84
2022/02/16 12:45:49;;;;;;;1.27;0.90;;;9.80;84.40;;;;;;6163726;23;20278;-84
2022/02/16 12:48:17;;;;;;;1.58;0.90;;;9.60;86.10;;;;;;6163594;23;20297;-85
2022/02/16 12:50:45;;;;;;;0.85;0.85;;;9.60;85.80;;;;;;6163428;23;20255;-83
2022/02/16 12:53:37;;;;;;;0.90;0.90;;;9.60;87.20;;;;;;6164074;23;20226;-83
2022/02/16 12:56:11;;;;;;;0.90;0.85;;;9.60;87.20;;;;;;6163515;23;20275;-83
2022/02/16 12:58:41;;;;;;;0.95;0.93;;;9.60;86.70;;;;;;6163642;23;20218;-83
2022/02/16 13:01:08;;;;;;;1.80;1.00;;;9.50;86.20;;;;;;6162228;23;20644;-84
2022/02/16 13:03:35;;;;;;;1.17;0.80;;;9.40;86.60;;;;;;6162033;23;20250;-83
2022/02/16 13:06:06;;;;;;;0.98;0.88;;;9.40;86.70;;;;;;6161227;23;20234;-84
2022/02/16 13:08:34;;;;;;;2.67;0.90;;;9.40;87.70;;;;;;6166650;23;20194;-86
2022/02/16 13:11:04;;;;;;;2.30;0.80;;;9.40;87.70;;;;;;6169332;23;20282;-84
2022/02/16 13:13:32;;;;;;;0.90;0.75;;;9.50;86.80;;;;;;6170250;23;20507;-83